sensor_id;sensor_type;location;lat;lon;timestamp;P1;durP1;ratioP1;P2;durP2;ratioP2
2305;SDS011;1161;51.922;8.896;2023-03-01T00:01:41;17.38;;;13.43;;
2305;SDS011;1161;51.922;8.896;2023-03-01T00:04:08;19.20;;;11.38;;
2305;SDS011;1161;51.922;8.896;2023-03-01T00:06:36;17.08;;;11.00;;
2305;SDS011;1161;51.922;8.896;2023-03-01T00:09:03;19.10;;;10.27;;
2305;SDS011;1161;51.922;8.896;2023-03-01T00:11:31;17.75;;;11.07;;
2305;SDS011;1161;51.922;8.896;2023-03-01T00:13:59;17.30;;;11.48;;
2305;SDS011;1161;51.922;8.896;2023-03-01T00:16:28;18.27;;;11.38;;
2305;SDS011;1161;51.922;8.896;2023-03-01T00:18:55;16.13;;;10.90;;
2305;SDS011;1161;51.922;8.896;2023-03-01T00:21:23;19.10;;;10.25;;
2305;SDS011;1161;51.922;8.896;2023-03-01T00:23:50;18.42;;;9.93;;
2305;SDS011;1161;51.922;8.896;2023-03-01T00:26:17;12.82;;;9.35;;
2305;SDS011;1161;51.922;8.896;2023-03-01T00:28:46;15.93;;;9.80;;
2305;SDS011;1161;51.922;8.896;2023-03-01T00:31:13;18.73;;;11.32;;
2305;SDS011;1161;51.922;8.896;2023-03-01T00:33:41;17.80;;;10.57;;
2305;SDS011;1161;51.922;8.896;2023-03-01T00:36:08;14.57;;;10.00;;
2305;SDS011;1161;51.922;8.896;2023-03-01T00:38:35;17.85;;;9.98;;
2305;SDS011;1161;51.922;8.896;2023-03-01T00:41:03;15.00;;;9.80;;
2305;SDS011;1161;51.922;8.896;2023-03-01T00:43:30;19.02;;;10.50;;
2305;SDS011;1161;51.922;8.896;2023-03-01T00:46:03;17.40;;;11.18;;
2305;SDS011;1161;51.922;8.896;2023-03-01T00:48:30;14.52;;;9.60;;
2305;SDS011;1161;51.922;8.896;2023-03-01T00:50:56;15.85;;;8.70;;
2305;SDS011;1161;51.922;8.896;2023-03-01T00:53:23;9.70;;;8.65;;
2305;SDS011;1161;51.922;8.896;2023-03-01T00:55:49;13.90;;;9.68;;
2305;SDS011;1161;51.922;8.896;2023-03-01T00:58:16;16.27;;;8.88;;
2305;SDS011;1161;51.922;8.896;2023-03-01T01:00:43;20.38;;;10.23;;
2305;SDS011;1161;51.922;8.896;2023-03-01T01:03:10;14.52;;;10.60;;
2305;SDS011;1161;51.922;8.896;2023-03-01T01:05:37;11.45;;;8.13;;
2305;SDS011;1161;51.922;8.896;2023-03-01T01:08:04;13.50;;;9.00;;
2305;SDS011;1161;51.922;8.896;2023-03-01T01:10:30;14.90;;;9.73;;
2305;SDS011;1161;51.922;8.896;2023-03-01T01:12:59;20.80;;;9.65;;
2305;SDS011;1161;51.922;8.896;2023-03-01T01:15:26;17.02;;;10.20;;
2305;SDS011;1161;51.922;8.896;2023-03-01T01:17:53;15.15;;;10.32;;
2305;SDS011;1161;51.922;8.896;2023-03-01T01:20:21;17.90;;;9.25;;
2305;SDS011;1161;51.922;8.896;2023-03-01T01:22:47;16.70;;;9.63;;
2305;SDS011;1161;51.922;8.896;2023-03-01T01:25:14;20.17;;;9.52;;
2305;SDS011;1161;51.922;8.896;2023-03-01T01:27:43;20.58;;;9.55;;
2305;SDS011;1161;51.922;8.896;2023-03-01T01:30:10;13.55;;;9.10;;
2305;SDS011;1161;51.922;8.896;2023-03-01T01:32:38;10.98;;;8.90;;
2305;SDS011;1161;51.922;8.896;2023-03-01T01:35:04;21.30;;;9.68;;
2305;SDS011;1161;51.922;8.896;2023-03-01T01:37:32;12.52;;;9.48;;
2305;SDS011;1161;51.922;8.896;2023-03-01T01:40:00;14.15;;;9.18;;
2305;SDS011;1161;51.922;8.896;2023-03-01T01:42:29;29.45;;;10.00;;
2305;SDS011;1161;51.922;8.896;2023-03-01T01:47:58;13.70;;;8.90;;
2305;SDS011;1161;51.922;8.896;2023-03-01T01:50:27;18.58;;;8.52;;
2305;SDS011;1161;51.922;8.896;2023-03-01T01:53:04;15.73;;;10.23;;
2305;SDS011;1161;51.922;8.896;2023-03-01T01:55:31;10.68;;;8.80;;
2305;SDS011;1161;51.922;8.896;2023-03-01T01:57:59;13.93;;;8.65;;
2305;SDS011;1161;51.922;8.896;2023-03-01T02:00:30;14.82;;;9.05;;
2305;SDS011;1161;51.922;8.896;2023-03-01T02:02:57;15.65;;;9.68;;
2305;SDS011;1161;51.922;8.896;2023-03-01T02:05:27;13.38;;;8.18;;
2305;SDS011;1161;51.922;8.896;2023-03-01T02:07:57;14.95;;;10.27;;
2305;SDS011;1161;51.922;8.896;2023-03-01T02:10:25;17.92;;;8.93;;
2305;SDS011;1161;51.922;8.896;2023-03-01T02:12:54;16.85;;;9.48;;
2305;SDS011;1161;51.922;8.896;2023-03-01T02:15:22;12.77;;;8.25;;
2305;SDS011;1161;51.922;8.896;2023-03-01T02:17:49;16.65;;;9.35;;
2305;SDS011;1161;51.922;8.896;2023-03-01T02:20:16;13.68;;;8.90;;
2305;SDS011;1161;51.922;8.896;2023-03-01T02:22:47;13.60;;;9.80;;
2305;SDS011;1161;51.922;8.896;2023-03-01T02:25:22;16.70;;;10.23;;
2305;SDS011;1161;51.922;8.896;2023-03-01T02:27:54;18.80;;;11.18;;
2305;SDS011;1161;51.922;8.896;2023-03-01T02:30:26;21.58;;;9.95;;
2305;SDS011;1161;51.922;8.896;2023-03-01T02:32:54;14.95;;;9.60;;
2305;SDS011;1161;51.922;8.896;2023-03-01T02:35:22;11.65;;;9.93;;
2305;SDS011;1161;51.922;8.896;2023-03-01T02:37:49;15.88;;;9.15;;
2305;SDS011;1161;51.922;8.896;2023-03-01T02:40:17;14.07;;;9.05;;
2305;SDS011;1161;51.922;8.896;2023-03-01T02:42:47;15.93;;;9.32;;
2305;SDS011;1161;51.922;8.896;2023-03-01T02:45:16;13.00;;;9.38;;
2305;SDS011;1161;51.922;8.896;2023-03-01T02:47:45;16.73;;;9.98;;
2305;SDS011;1161;51.922;8.896;2023-03-01T02:50:15;12.23;;;7.88;;
2305;SDS011;1161;51.922;8.896;2023-03-01T02:52:52;19.30;;;12.55;;
2305;SDS011;1161;51.922;8.896;2023-03-01T02:55:23;24.00;;;9.00;;
2305;SDS011;1161;51.922;8.896;2023-03-01T02:57:50;14.43;;;7.72;;
2305;SDS011;1161;51.922;8.896;2023-03-01T03:00:18;13.05;;;9.02;;
2305;SDS011;1161;51.922;8.896;2023-03-01T03:02:48;13.45;;;9.25;;
2305;SDS011;1161;51.922;8.896;2023-03-01T03:05:16;23.15;;;9.43;;
2305;SDS011;1161;51.922;8.896;2023-03-01T03:07:45;19.25;;;9.70;;
2305;SDS011;1161;51.922;8.896;2023-03-01T03:10:14;20.55;;;8.80;;
2305;SDS011;1161;51.922;8.896;2023-03-01T03:12:42;19.10;;;9.55;;
2305;SDS011;1161;51.922;8.896;2023-03-01T03:15:09;17.45;;;9.27;;
2305;SDS011;1161;51.922;8.896;2023-03-01T03:17:38;20.80;;;9.30;;
2305;SDS011;1161;51.922;8.896;2023-03-01T03:20:08;11.27;;;7.70;;
2305;SDS011;1161;51.922;8.896;2023-03-01T03:22:37;15.18;;;9.07;;
2305;SDS011;1161;51.922;8.896;2023-03-01T03:25:05;14.85;;;9.52;;
2305;SDS011;1161;51.922;8.896;2023-03-01T03:27:35;10.98;;;8.15;;
2305;SDS011;1161;51.922;8.896;2023-03-01T03:30:03;16.83;;;8.73;;
2305;SDS011;1161;51.922;8.896;2023-03-01T03:32:34;14.90;;;8.23;;
2305;SDS011;1161;51.922;8.896;2023-03-01T03:35:01;14.48;;;9.73;;
2305;SDS011;1161;51.922;8.896;2023-03-01T03:37:35;15.85;;;8.68;;
2305;SDS011;1161;51.922;8.896;2023-03-01T03:40:20;10.00;;;7.68;;
2305;SDS011;1161;51.922;8.896;2023-03-01T03:42:48;18.08;;;9.90;;
2305;SDS011;1161;51.922;8.896;2023-03-01T03:45:15;10.07;;;8.13;;
2305;SDS011;1161;51.922;8.896;2023-03-01T03:47:42;8.45;;;7.50;;
2305;SDS011;1161;51.922;8.896;2023-03-01T03:50:10;18.52;;;8.95;;
2305;SDS011;1161;51.922;8.896;2023-03-01T03:52:39;13.60;;;8.15;;
2305;SDS011;1161;51.922;8.896;2023-03-01T03:55:07;13.68;;;9.48;;
2305;SDS011;1161;51.922;8.896;2023-03-01T03:57:36;10.40;;;8.43;;
2305;SDS011;1161;51.922;8.896;2023-03-01T04:00:04;17.73;;;9.68;;
2305;SDS011;1161;51.922;8.896;2023-03-01T04:02:38;12.15;;;8.95;;
2305;SDS011;1161;51.922;8.896;2023-03-01T04:05:05;14.45;;;7.43;;
2305;SDS011;1161;51.922;8.896;2023-03-01T04:07:33;16.65;;;8.90;;
2305;SDS011;1161;51.922;8.896;2023-03-01T04:10:02;13.25;;;8.93;;
2305;SDS011;1161;51.922;8.896;2023-03-01T04:12:28;12.18;;;9.65;;
2305;SDS011;1161;51.922;8.896;2023-03-01T04:14:56;8.50;;;7.00;;
2305;SDS011;1161;51.922;8.896;2023-03-01T04:17:23;14.60;;;8.00;;
2305;SDS011;1161;51.922;8.896;2023-03-01T04:19:51;26.13;;;11.88;;
2305;SDS011;1161;51.922;8.896;2023-03-01T04:22:18;16.10;;;8.30;;
2305;SDS011;1161;51.922;8.896;2023-03-01T04:24:45;15.07;;;9.80;;
2305;SDS011;1161;51.922;8.896;2023-03-01T04:27:13;13.43;;;9.68;;
2305;SDS011;1161;51.922;8.896;2023-03-01T04:29:40;14.65;;;9.73;;
2305;SDS011;1161;51.922;8.896;2023-03-01T04:32:07;16.33;;;8.90;;
2305;SDS011;1161;51.922;8.896;2023-03-01T04:34:34;19.38;;;9.27;;
2305;SDS011;1161;51.922;8.896;2023-03-01T04:37:02;12.60;;;8.30;;
2305;SDS011;1161;51.922;8.896;2023-03-01T04:39:29;8.55;;;7.15;;
2305;SDS011;1161;51.922;8.896;2023-03-01T04:41:56;14.05;;;9.60;;
2305;SDS011;1161;51.922;8.896;2023-03-01T04:44:24;12.52;;;9.18;;
2305;SDS011;1161;51.922;8.896;2023-03-01T04:46:53;20.20;;;9.55;;
2305;SDS011;1161;51.922;8.896;2023-03-01T04:49:19;13.20;;;8.60;;
2305;SDS011;1161;51.922;8.896;2023-03-01T04:51:47;20.38;;;10.02;;
2305;SDS011;1161;51.922;8.896;2023-03-01T04:54:15;15.60;;;8.82;;
2305;SDS011;1161;51.922;8.896;2023-03-01T04:56:43;13.23;;;10.10;;
2305;SDS011;1161;51.922;8.896;2023-03-01T04:59:10;20.88;;;10.32;;
2305;SDS011;1161;51.922;8.896;2023-03-01T05:01:39;21.10;;;11.65;;
2305;SDS011;1161;51.922;8.896;2023-03-01T05:04:09;15.57;;;8.57;;
2305;SDS011;1161;51.922;8.896;2023-03-01T05:06:38;13.73;;;8.70;;
2305;SDS011;1161;51.922;8.896;2023-03-01T05:09:06;15.13;;;10.57;;
2305;SDS011;1161;51.922;8.896;2023-03-01T05:11:33;18.83;;;10.60;;
2305;SDS011;1161;51.922;8.896;2023-03-01T05:14:03;16.58;;;9.10;;
2305;SDS011;1161;51.922;8.896;2023-03-01T05:16:31;11.25;;;9.02;;
2305;SDS011;1161;51.922;8.896;2023-03-01T05:19:00;14.45;;;9.05;;
2305;SDS011;1161;51.922;8.896;2023-03-01T05:21:26;15.73;;;9.38;;
2305;SDS011;1161;51.922;8.896;2023-03-01T05:23:56;13.57;;;9.48;;
2305;SDS011;1161;51.922;8.896;2023-03-01T05:26:24;13.82;;;9.73;;
2305;SDS011;1161;51.922;8.896;2023-03-01T05:28:55;16.20;;;11.07;;
2305;SDS011;1161;51.922;8.896;2023-03-01T05:31:24;17.10;;;10.10;;
2305;SDS011;1161;51.922;8.896;2023-03-01T05:33:50;19.38;;;9.27;;
2305;SDS011;1161;51.922;8.896;2023-03-01T05:36:19;11.63;;;9.00;;
2305;SDS011;1161;51.922;8.896;2023-03-01T05:38:46;17.33;;;10.30;;
2305;SDS011;1161;51.922;8.896;2023-03-01T05:41:13;17.35;;;10.15;;
2305;SDS011;1161;51.922;8.896;2023-03-01T05:43:41;15.60;;;10.65;;
2305;SDS011;1161;51.922;8.896;2023-03-01T05:46:12;17.70;;;10.40;;
2305;SDS011;1161;51.922;8.896;2023-03-01T05:48:40;15.48;;;10.10;;
2305;SDS011;1161;51.922;8.896;2023-03-01T05:51:08;21.50;;;10.68;;
2305;SDS011;1161;51.922;8.896;2023-03-01T05:53:36;14.13;;;9.80;;
2305;SDS011;1161;51.922;8.896;2023-03-01T05:56:04;15.10;;;9.88;;
2305;SDS011;1161;51.922;8.896;2023-03-01T05:58:32;16.55;;;10.70;;
2305;SDS011;1161;51.922;8.896;2023-03-01T06:01:00;10.57;;;9.13;;
2305;SDS011;1161;51.922;8.896;2023-03-01T06:03:28;12.77;;;9.05;;
2305;SDS011;1161;51.922;8.896;2023-03-01T06:05:55;17.83;;;10.02;;
2305;SDS011;1161;51.922;8.896;2023-03-01T06:08:23;15.52;;;9.15;;
2305;SDS011;1161;51.922;8.896;2023-03-01T06:10:53;20.33;;;8.57;;
2305;SDS011;1161;51.922;8.896;2023-03-01T06:13:21;16.45;;;9.70;;
2305;SDS011;1161;51.922;8.896;2023-03-01T06:15:50;14.68;;;10.13;;
2305;SDS011;1161;51.922;8.896;2023-03-01T06:18:18;18.40;;;8.80;;
2305;SDS011;1161;51.922;8.896;2023-03-01T06:20:51;12.10;;;9.50;;
2305;SDS011;1161;51.922;8.896;2023-03-01T06:23:20;12.45;;;9.02;;
2305;SDS011;1161;51.922;8.896;2023-03-01T06:25:47;15.02;;;11.52;;
2305;SDS011;1161;51.922;8.896;2023-03-01T06:28:17;14.52;;;9.70;;
2305;SDS011;1161;51.922;8.896;2023-03-01T06:30:46;13.48;;;9.50;;
2305;SDS011;1161;51.922;8.896;2023-03-01T06:33:13;14.05;;;9.68;;
2305;SDS011;1161;51.922;8.896;2023-03-01T06:35:40;12.60;;;8.82;;
2305;SDS011;1161;51.922;8.896;2023-03-01T06:38:26;15.75;;;9.60;;
2305;SDS011;1161;51.922;8.896;2023-03-01T06:40:58;16.10;;;9.00;;
2305;SDS011;1161;51.922;8.896;2023-03-01T06:43:30;21.40;;;11.57;;
2305;SDS011;1161;51.922;8.896;2023-03-01T06:45:57;17.27;;;11.75;;
2305;SDS011;1161;51.922;8.896;2023-03-01T06:48:25;22.38;;;11.50;;
2305;SDS011;1161;51.922;8.896;2023-03-01T06:50:52;16.55;;;13.55;;
2305;SDS011;1161;51.922;8.896;2023-03-01T06:53:20;39.35;;;11.73;;
2305;SDS011;1161;51.922;8.896;2023-03-01T06:55:53;15.98;;;10.70;;
2305;SDS011;1161;51.922;8.896;2023-03-01T06:58:21;18.25;;;10.85;;
2305;SDS011;1161;51.922;8.896;2023-03-01T07:00:51;17.13;;;11.82;;
2305;SDS011;1161;51.922;8.896;2023-03-01T07:03:19;20.83;;;11.00;;
2305;SDS011;1161;51.922;8.896;2023-03-01T07:05:48;17.77;;;10.90;;
2305;SDS011;1161;51.922;8.896;2023-03-01T07:08:15;21.95;;;12.25;;
2305;SDS011;1161;51.922;8.896;2023-03-01T07:10:42;20.05;;;12.70;;
2305;SDS011;1161;51.922;8.896;2023-03-01T07:13:09;19.85;;;11.80;;
2305;SDS011;1161;51.922;8.896;2023-03-01T07:15:37;21.40;;;11.10;;
2305;SDS011;1161;51.922;8.896;2023-03-01T07:18:08;13.80;;;9.77;;
2305;SDS011;1161;51.922;8.896;2023-03-01T07:20:34;25.08;;;12.02;;
2305;SDS011;1161;51.922;8.896;2023-03-01T07:23:02;20.17;;;9.23;;
2305;SDS011;1161;51.922;8.896;2023-03-01T07:25:31;25.48;;;10.40;;
2305;SDS011;1161;51.922;8.896;2023-03-01T07:28:00;18.90;;;10.25;;
2305;SDS011;1161;51.922;8.896;2023-03-01T07:30:27;20.98;;;13.18;;
2305;SDS011;1161;51.922;8.896;2023-03-01T07:32:55;24.50;;;15.15;;
2305;SDS011;1161;51.922;8.896;2023-03-01T07:35:24;30.40;;;12.80;;
2305;SDS011;1161;51.922;8.896;2023-03-01T07:37:55;21.23;;;11.35;;
2305;SDS011;1161;51.922;8.896;2023-03-01T07:40:24;24.80;;;13.68;;
2305;SDS011;1161;51.922;8.896;2023-03-01T07:42:55;28.05;;;12.15;;
2305;SDS011;1161;51.922;8.896;2023-03-01T07:45:24;20.33;;;11.60;;
2305;SDS011;1161;51.922;8.896;2023-03-01T07:47:51;26.05;;;15.45;;
2305;SDS011;1161;51.922;8.896;2023-03-01T07:50:18;29.80;;;15.80;;
2305;SDS011;1161;51.922;8.896;2023-03-01T07:52:46;23.60;;;12.77;;
2305;SDS011;1161;51.922;8.896;2023-03-01T07:55:13;22.40;;;13.95;;
2305;SDS011;1161;51.922;8.896;2023-03-01T07:57:40;32.67;;;17.48;;
2305;SDS011;1161;51.922;8.896;2023-03-01T08:00:07;48.10;;;15.40;;
2305;SDS011;1161;51.922;8.896;2023-03-01T08:02:36;27.13;;;14.60;;
2305;SDS011;1161;51.922;8.896;2023-03-01T08:05:04;21.55;;;12.25;;
2305;SDS011;1161;51.922;8.896;2023-03-01T08:07:31;22.63;;;14.50;;
2305;SDS011;1161;51.922;8.896;2023-03-01T08:09:59;21.98;;;12.73;;
2305;SDS011;1161;51.922;8.896;2023-03-01T08:12:25;22.00;;;13.18;;
2305;SDS011;1161;51.922;8.896;2023-03-01T08:14:53;18.38;;;11.30;;
2305;SDS011;1161;51.922;8.896;2023-03-01T08:17:19;23.23;;;11.95;;
2305;SDS011;1161;51.922;8.896;2023-03-01T08:19:46;30.17;;;13.45;;
2305;SDS011;1161;51.922;8.896;2023-03-01T08:22:13;20.23;;;12.82;;
2305;SDS011;1161;51.922;8.896;2023-03-01T08:24:39;26.55;;;13.70;;
2305;SDS011;1161;51.922;8.896;2023-03-01T08:27:07;30.52;;;13.48;;
2305;SDS011;1161;51.922;8.896;2023-03-01T08:29:34;30.23;;;13.48;;
2305;SDS011;1161;51.922;8.896;2023-03-01T08:32:00;25.02;;;13.00;;
2305;SDS011;1161;51.922;8.896;2023-03-01T08:34:27;25.02;;;14.10;;
2305;SDS011;1161;51.922;8.896;2023-03-01T08:36:54;30.05;;;12.80;;
2305;SDS011;1161;51.922;8.896;2023-03-01T08:39:20;21.65;;;13.93;;
2305;SDS011;1161;51.922;8.896;2023-03-01T08:41:47;26.20;;;13.68;;
2305;SDS011;1161;51.922;8.896;2023-03-01T08:44:15;22.88;;;12.77;;
2305;SDS011;1161;51.922;8.896;2023-03-01T08:46:43;26.38;;;13.57;;
2305;SDS011;1161;51.922;8.896;2023-03-01T08:49:11;28.30;;;12.80;;
2305;SDS011;1161;51.922;8.896;2023-03-01T08:51:39;23.13;;;13.43;;
2305;SDS011;1161;51.922;8.896;2023-03-01T08:54:06;29.98;;;12.52;;
2305;SDS011;1161;51.922;8.896;2023-03-01T08:56:36;15.10;;;10.70;;
2305;SDS011;1161;51.922;8.896;2023-03-01T08:59:03;25.38;;;12.85;;
2305;SDS011;1161;51.922;8.896;2023-03-01T09:01:31;15.52;;;10.55;;
2305;SDS011;1161;51.922;8.896;2023-03-01T09:03:58;21.30;;;12.18;;
2305;SDS011;1161;51.922;8.896;2023-03-01T09:06:24;22.77;;;11.90;;
2305;SDS011;1161;51.922;8.896;2023-03-01T09:08:51;24.38;;;11.95;;
2305;SDS011;1161;51.922;8.896;2023-03-01T09:11:19;21.42;;;11.13;;
2305;SDS011;1161;51.922;8.896;2023-03-01T09:13:47;21.73;;;12.07;;
2305;SDS011;1161;51.922;8.896;2023-03-01T09:16:15;14.88;;;10.38;;
2305;SDS011;1161;51.922;8.896;2023-03-01T09:18:48;24.42;;;12.05;;
2305;SDS011;1161;51.922;8.896;2023-03-01T09:21:15;14.38;;;9.90;;
2305;SDS011;1161;51.922;8.896;2023-03-01T09:23:43;18.13;;;8.88;;
2305;SDS011;1161;51.922;8.896;2023-03-01T09:26:11;18.02;;;9.73;;
2305;SDS011;1161;51.922;8.896;2023-03-01T09:28:39;19.05;;;8.70;;
2305;SDS011;1161;51.922;8.896;2023-03-01T09:31:06;15.82;;;9.68;;
2305;SDS011;1161;51.922;8.896;2023-03-01T09:33:33;16.67;;;8.43;;
2305;SDS011;1161;51.922;8.896;2023-03-01T09:36:02;15.50;;;10.82;;
2305;SDS011;1161;51.922;8.896;2023-03-01T09:38:30;13.57;;;8.43;;
2305;SDS011;1161;51.922;8.896;2023-03-01T09:40:57;11.00;;;8.47;;
2305;SDS011;1161;51.922;8.896;2023-03-01T09:43:25;15.45;;;8.40;;
2305;SDS011;1161;51.922;8.896;2023-03-01T09:45:58;12.55;;;7.32;;
2305;SDS011;1161;51.922;8.896;2023-03-01T09:48:27;20.35;;;9.00;;
2305;SDS011;1161;51.922;8.896;2023-03-01T09:50:56;14.70;;;10.20;;
2305;SDS011;1161;51.922;8.896;2023-03-01T09:53:25;10.83;;;7.30;;
2305;SDS011;1161;51.922;8.896;2023-03-01T09:55:59;15.98;;;8.18;;
2305;SDS011;1161;51.922;8.896;2023-03-01T09:58:31;17.10;;;8.40;;
2305;SDS011;1161;51.922;8.896;2023-03-01T10:01:20;13.17;;;7.77;;
2305;SDS011;1161;51.922;8.896;2023-03-01T10:04:02;8.30;;;6.90;;
2305;SDS011;1161;51.922;8.896;2023-03-01T10:06:36;14.50;;;7.63;;
2305;SDS011;1161;51.922;8.896;2023-03-01T10:09:05;13.67;;;8.00;;
2305;SDS011;1161;51.922;8.896;2023-03-01T10:11:35;14.60;;;7.57;;
2305;SDS011;1161;51.922;8.896;2023-03-01T10:14:04;16.50;;;9.53;;
2305;SDS011;1161;51.922;8.896;2023-03-01T10:16:38;15.93;;;8.83;;
2305;SDS011;1161;51.922;8.896;2023-03-01T10:19:09;18.07;;;7.20;;
2305;SDS011;1161;51.922;8.896;2023-03-01T10:21:40;12.87;;;8.40;;
2305;SDS011;1161;51.922;8.896;2023-03-01T10:24:10;10.80;;;8.30;;
2305;SDS011;1161;51.922;8.896;2023-03-01T10:26:40;19.73;;;7.57;;
2305;SDS011;1161;51.922;8.896;2023-03-01T10:29:11;21.20;;;10.07;;
2305;SDS011;1161;51.922;8.896;2023-03-01T10:31:40;13.83;;;8.17;;
2305;SDS011;1161;51.922;8.896;2023-03-01T10:34:13;15.13;;;9.40;;
2305;SDS011;1161;51.922;8.896;2023-03-01T10:36:41;19.70;;;9.80;;
2305;SDS011;1161;51.922;8.896;2023-03-01T10:39:14;13.73;;;7.77;;
2305;SDS011;1161;51.922;8.896;2023-03-01T10:41:52;23.13;;;7.47;;
2305;SDS011;1161;51.922;8.896;2023-03-01T10:44:34;13.13;;;6.93;;
2305;SDS011;1161;51.922;8.896;2023-03-01T10:47:03;9.27;;;7.80;;
2305;SDS011;1161;51.922;8.896;2023-03-01T10:49:30;11.47;;;6.73;;
2305;SDS011;1161;51.922;8.896;2023-03-01T10:51:57;10.90;;;6.90;;
2305;SDS011;1161;51.922;8.896;2023-03-01T10:54:39;12.23;;;6.93;;
2305;SDS011;1161;51.922;8.896;2023-03-01T10:57:10;11.57;;;6.93;;
2305;SDS011;1161;51.922;8.896;2023-03-01T11:00:00;14.27;;;8.20;;
2305;SDS011;1161;51.922;8.896;2023-03-01T11:02:30;13.40;;;8.80;;
2305;SDS011;1161;51.922;8.896;2023-03-01T11:04:59;14.57;;;8.50;;
2305;SDS011;1161;51.922;8.896;2023-03-01T11:07:27;13.10;;;6.43;;
2305;SDS011;1161;51.922;8.896;2023-03-01T11:09:55;19.80;;;8.70;;
2305;SDS011;1161;51.922;8.896;2023-03-01T11:12:21;10.10;;;7.27;;
2305;SDS011;1161;51.922;8.896;2023-03-01T11:14:49;10.90;;;7.00;;
2305;SDS011;1161;51.922;8.896;2023-03-01T11:17:18;19.07;;;7.87;;
2305;SDS011;1161;51.922;8.896;2023-03-01T11:19:59;15.97;;;7.70;;
2305;SDS011;1161;51.922;8.896;2023-03-01T11:22:26;13.97;;;7.70;;
2305;SDS011;1161;51.922;8.896;2023-03-01T11:24:55;13.03;;;6.50;;
2305;SDS011;1161;51.922;8.896;2023-03-01T11:27:24;9.03;;;7.30;;
2305;SDS011;1161;51.922;8.896;2023-03-01T11:29:53;9.70;;;7.83;;
2305;SDS011;1161;51.922;8.896;2023-03-01T11:32:23;13.30;;;7.80;;
2305;SDS011;1161;51.922;8.896;2023-03-01T11:34:52;8.10;;;5.93;;
2305;SDS011;1161;51.922;8.896;2023-03-01T11:37:23;7.57;;;5.27;;
2305;SDS011;1161;51.922;8.896;2023-03-01T11:39:59;15.00;;;8.17;;
2305;SDS011;1161;51.922;8.896;2023-03-01T11:42:37;12.50;;;7.20;;
2305;SDS011;1161;51.922;8.896;2023-03-01T11:45:10;28.07;;;7.80;;
2305;SDS011;1161;51.922;8.896;2023-03-01T11:47:42;8.17;;;6.50;;
2305;SDS011;1161;51.922;8.896;2023-03-01T11:50:34;8.80;;;6.20;;
2305;SDS011;1161;51.922;8.896;2023-03-01T11:53:08;10.13;;;5.87;;
2305;SDS011;1161;51.922;8.896;2023-03-01T11:55:50;8.77;;;6.53;;
2305;SDS011;1161;51.922;8.896;2023-03-01T11:58:30;10.97;;;6.23;;
2305;SDS011;1161;51.922;8.896;2023-03-01T12:01:09;13.20;;;7.20;;
2305;SDS011;1161;51.922;8.896;2023-03-01T12:03:45;12.57;;;7.00;;
2305;SDS011;1161;51.922;8.896;2023-03-01T12:06:24;9.87;;;7.50;;
2305;SDS011;1161;51.922;8.896;2023-03-01T12:08:59;11.97;;;6.70;;
2305;SDS011;1161;51.922;8.896;2023-03-01T12:11:35;14.70;;;8.20;;
2305;SDS011;1161;51.922;8.896;2023-03-01T12:14:15;12.33;;;7.73;;
2305;SDS011;1161;51.922;8.896;2023-03-01T12:17:00;10.50;;;8.30;;
2305;SDS011;1161;51.922;8.896;2023-03-01T12:19:42;9.63;;;7.00;;
2305;SDS011;1161;51.922;8.896;2023-03-01T12:22:29;17.53;;;6.37;;
2305;SDS011;1161;51.922;8.896;2023-03-01T12:25:10;11.60;;;5.47;;
2305;SDS011;1161;51.922;8.896;2023-03-01T12:27:48;12.07;;;6.77;;
2305;SDS011;1161;51.922;8.896;2023-03-01T12:30:24;8.20;;;5.70;;
2305;SDS011;1161;51.922;8.896;2023-03-01T12:32:59;11.97;;;6.50;;
2305;SDS011;1161;51.922;8.896;2023-03-01T12:35:40;11.60;;;7.53;;
2305;SDS011;1161;51.922;8.896;2023-03-01T12:38:20;10.30;;;5.73;;
2305;SDS011;1161;51.922;8.896;2023-03-01T12:40:58;7.30;;;5.83;;
2305;SDS011;1161;51.922;8.896;2023-03-01T12:43:41;15.77;;;7.87;;
2305;SDS011;1161;51.922;8.896;2023-03-01T12:46:17;14.60;;;7.77;;
2305;SDS011;1161;51.922;8.896;2023-03-01T12:48:52;12.60;;;6.80;;
2305;SDS011;1161;51.922;8.896;2023-03-01T12:51:26;8.00;;;6.53;;
2305;SDS011;1161;51.922;8.896;2023-03-01T12:53:55;10.87;;;6.43;;
2305;SDS011;1161;51.922;8.896;2023-03-01T12:56:23;7.37;;;6.70;;
2305;SDS011;1161;51.922;8.896;2023-03-01T12:58:56;7.70;;;6.53;;
2305;SDS011;1161;51.922;8.896;2023-03-01T13:01:32;8.87;;;5.70;;
2305;SDS011;1161;51.922;8.896;2023-03-01T13:04:08;11.93;;;7.27;;
2305;SDS011;1161;51.922;8.896;2023-03-01T13:06:42;11.33;;;7.80;;
2305;SDS011;1161;51.922;8.896;2023-03-01T13:09:14;11.50;;;7.00;;
2305;SDS011;1161;51.922;8.896;2023-03-01T13:11:44;13.03;;;7.00;;
2305;SDS011;1161;51.922;8.896;2023-03-01T13:17:03;11.63;;;7.23;;
2305;SDS011;1161;51.922;8.896;2023-03-01T13:19:30;14.87;;;6.57;;
2305;SDS011;1161;51.922;8.896;2023-03-01T13:21:58;9.87;;;6.33;;
2305;SDS011;1161;51.922;8.896;2023-03-01T13:24:26;11.47;;;6.87;;
2305;SDS011;1161;51.922;8.896;2023-03-01T13:27:21;9.13;;;7.13;;
2305;SDS011;1161;51.922;8.896;2023-03-01T13:29:56;13.60;;;8.60;;
2305;SDS011;1161;51.922;8.896;2023-03-01T13:32:25;14.20;;;7.33;;
2305;SDS011;1161;51.922;8.896;2023-03-01T13:34:57;12.17;;;7.00;;
2305;SDS011;1161;51.922;8.896;2023-03-01T13:37:31;15.33;;;7.40;;
2305;SDS011;1161;51.922;8.896;2023-03-01T13:40:01;13.77;;;7.90;;
2305;SDS011;1161;51.922;8.896;2023-03-01T13:42:33;21.20;;;8.87;;
2305;SDS011;1161;51.922;8.896;2023-03-01T13:45:05;11.00;;;6.97;;
2305;SDS011;1161;51.922;8.896;2023-03-01T13:47:40;18.30;;;8.37;;
2305;SDS011;1161;51.922;8.896;2023-03-01T13:50:15;14.00;;;7.67;;
2305;SDS011;1161;51.922;8.896;2023-03-01T13:52:44;14.30;;;8.20;;
2305;SDS011;1161;51.922;8.896;2023-03-01T13:55:16;18.53;;;7.67;;
2305;SDS011;1161;51.922;8.896;2023-03-01T13:57:45;14.83;;;8.33;;
2305;SDS011;1161;51.922;8.896;2023-03-01T14:00:27;17.13;;;7.83;;
2305;SDS011;1161;51.922;8.896;2023-03-01T14:03:03;12.80;;;7.87;;
2305;SDS011;1161;51.922;8.896;2023-03-01T14:05:32;9.60;;;6.10;;
2305;SDS011;1161;51.922;8.896;2023-03-01T14:07:59;9.70;;;7.53;;
2305;SDS011;1161;51.922;8.896;2023-03-01T14:10:26;16.13;;;8.97;;
2305;SDS011;1161;51.922;8.896;2023-03-01T14:13:00;18.13;;;8.90;;
2305;SDS011;1161;51.922;8.896;2023-03-01T14:15:37;17.20;;;7.80;;
2305;SDS011;1161;51.922;8.896;2023-03-01T14:18:07;14.37;;;7.70;;
2305;SDS011;1161;51.922;8.896;2023-03-01T14:20:38;14.40;;;7.80;;
2305;SDS011;1161;51.922;8.896;2023-03-01T14:23:09;13.03;;;7.10;;
2305;SDS011;1161;51.922;8.896;2023-03-01T14:25:37;14.47;;;7.83;;
2305;SDS011;1161;51.922;8.896;2023-03-01T14:28:04;13.90;;;7.87;;
2305;SDS011;1161;51.922;8.896;2023-03-01T14:30:42;12.20;;;7.40;;
2305;SDS011;1161;51.922;8.896;2023-03-01T14:33:18;15.60;;;7.97;;
2305;SDS011;1161;51.922;8.896;2023-03-01T14:35:51;11.13;;;7.00;;
2305;SDS011;1161;51.922;8.896;2023-03-01T14:38:20;13.10;;;7.97;;
2305;SDS011;1161;51.922;8.896;2023-03-01T14:40:56;16.47;;;7.67;;
2305;SDS011;1161;51.922;8.896;2023-03-01T14:43:23;18.10;;;8.17;;
2305;SDS011;1161;51.922;8.896;2023-03-01T14:45:54;13.90;;;8.10;;
2305;SDS011;1161;51.922;8.896;2023-03-01T14:48:21;12.00;;;8.40;;
2305;SDS011;1161;51.922;8.896;2023-03-01T14:50:47;12.53;;;6.73;;
2305;SDS011;1161;51.922;8.896;2023-03-01T14:53:16;11.17;;;6.43;;
2305;SDS011;1161;51.922;8.896;2023-03-01T14:55:45;16.90;;;9.50;;
2305;SDS011;1161;51.922;8.896;2023-03-01T14:58:14;16.10;;;8.27;;
2305;SDS011;1161;51.922;8.896;2023-03-01T15:00:46;12.00;;;6.97;;
2305;SDS011;1161;51.922;8.896;2023-03-01T15:03:19;10.37;;;7.33;;
2305;SDS011;1161;51.922;8.896;2023-03-01T15:05:50;11.43;;;8.20;;
2305;SDS011;1161;51.922;8.896;2023-03-01T15:08:18;12.70;;;7.60;;
2305;SDS011;1161;51.922;8.896;2023-03-01T15:10:55;16.20;;;7.47;;
2305;SDS011;1161;51.922;8.896;2023-03-01T15:13:23;16.43;;;6.80;;
2305;SDS011;1161;51.922;8.896;2023-03-01T15:15:53;14.33;;;6.40;;
2305;SDS011;1161;51.922;8.896;2023-03-01T15:18:21;16.27;;;7.47;;
2305;SDS011;1161;51.922;8.896;2023-03-01T15:20:49;19.40;;;8.90;;